Polaris, Montana
Current Conditions -  °F | °C
As of 6:53 AM on Thursday 23 Oct 2014 (Local Time) from KDLN Reporting Station
Overcast Overcast  
Wind Chill: 37°   Ceiling: 7000
Heat Index: 41°   Visibility: 10mi
Dew Point: 29°   Wind: 6mph
Humidity: 62%   Direction: 210°SSW
Pressure: 29.99"   Gusts: NA
Location:  45.37°N, 113.12°W
Report Text: KDLN 231253Z AUTO 21005KT 10SM OVC070 05/M02 A2999 RMK AO2 SLP144 T00501017
Loading
Personal Weather Stations






























Interactive Weather Map
Tropical Storm Tracking
New forecast layout! Learn more

10-Day Weather Forecast

Advertisements
Track Severe Weather on mobile